EPGD/GDN METAR and TAF weather

Enter ICAO airport designator
Station Type Date Time Source
EPGD METAR 2019/08/22 02:30 UTC NOAA

EPGD 220230Z VRB02KT CAVOK 10/09 Q1029


Station Type Date Time Source
EPGD Decoded METAR 2019/08/22 02:30 UTC NOAA

Station name not available
Aug 21, 2019 - 10:30 PM EDT / 2019.08.22 0230 UTC
Wind: Variable at 2 MPH (2 KT):0
Visibility: greater than 7 mile(s):0
Temperature: 50 F (10 C)
Dew Point: 48 F (9 C)
Relative Humidity: 93%
Pressure (altimeter): 30.39 in. Hg (1029 hPa)
ob: EPGD 220230Z VRB02KT CAVOK 10/09 Q1029
cycle: 2

Station Type Date Time Source
EPGD TAF 2019/08/21 18:33 UTC NOAA

TAF TAF EPGD 211730Z 2118/2218 30010KT CAVOK
BECMG 2118/2121 24005KT PROB40 2200/2205 3000 BR

Example: see airport list